Munising, Michigan
Current Conditions -  °F | °C
As of 11:37 PM on Saturday 20 Dec 2014 (Local Time) from KSAW Reporting Station
Overcast Overcast  
Wind Chill: 17°   Ceiling: 2400
Heat Index: 26°   Visibility: 7mi
Dew Point: 23°   Wind: 8mph
Humidity: 89%   Direction: 200°SSW
Pressure: 30.16"   Gusts: NA
Location:  46.41°N, 86.65°W
Report Text: KSAW 210437Z AUTO 20007KT 7SM OVC024 M03/M05 A3016 RMK AO2 T10351050
Loading
Personal Weather Stations






























Interactive Weather Map New forecast layout! Learn more

10-Day Weather Forecast

Advertisements
Track Severe Weather on mobile